sensor_id;sensor_type;location;lat;lon;timestamp;P1;durP1;ratioP1;P2;durP2;ratioP2
27612;SDS011;15036;48.094;-1.690;2023-01-15T00:00:56;5.80;;;1.33;;
27612;SDS011;15036;48.094;-1.690;2023-01-15T00:03:22;9.00;;;1.30;;
27612;SDS011;15036;48.094;-1.690;2023-01-15T00:05:47;12.05;;;1.73;;
27612;SDS011;15036;48.094;-1.690;2023-01-15T00:08:12;6.47;;;1.40;;
27612;SDS011;15036;48.094;-1.690;2023-01-15T00:10:38;9.98;;;1.38;;
27612;SDS011;15036;48.094;-1.690;2023-01-15T00:13:03;4.50;;;1.30;;
27612;SDS011;15036;48.094;-1.690;2023-01-15T00:15:28;9.98;;;1.60;;
27612;SDS011;15036;48.094;-1.690;2023-01-15T00:17:55;7.30;;;1.67;;
27612;SDS011;15036;48.094;-1.690;2023-01-15T00:20:20;9.25;;;1.60;;
27612;SDS011;15036;48.094;-1.690;2023-01-15T00:22:45;8.20;;;1.27;;
27612;SDS011;15036;48.094;-1.690;2023-01-15T00:25:11;11.80;;;1.77;;
27612;SDS011;15036;48.094;-1.690;2023-01-15T00:27:55;10.30;;;1.98;;
27612;SDS011;15036;48.094;-1.690;2023-01-15T00:30:20;5.95;;;1.60;;
27612;SDS011;15036;48.094;-1.690;2023-01-15T00:32:45;8.88;;;1.58;;
27612;SDS011;15036;48.094;-1.690;2023-01-15T00:35:12;7.97;;;1.52;;
27612;SDS011;15036;48.094;-1.690;2023-01-15T00:37:38;8.85;;;1.30;;
27612;SDS011;15036;48.094;-1.690;2023-01-15T00:40:04;5.03;;;1.35;;
27612;SDS011;15036;48.094;-1.690;2023-01-15T00:42:30;9.32;;;2.03;;
27612;SDS011;15036;48.094;-1.690;2023-01-15T00:44:55;10.32;;;2.00;;
27612;SDS011;15036;48.094;-1.690;2023-01-15T00:47:20;6.22;;;1.30;;
27612;SDS011;15036;48.094;-1.690;2023-01-15T00:49:46;11.00;;;1.85;;
27612;SDS011;15036;48.094;-1.690;2023-01-15T00:52:11;8.88;;;1.73;;
27612;SDS011;15036;48.094;-1.690;2023-01-15T00:54:37;7.07;;;1.60;;
27612;SDS011;15036;48.094;-1.690;2023-01-15T00:57:03;9.20;;;1.60;;
27612;SDS011;15036;48.094;-1.690;2023-01-15T00:59:29;10.68;;;1.65;;
27612;SDS011;15036;48.094;-1.690;2023-01-15T01:01:54;7.28;;;1.35;;
27612;SDS011;15036;48.094;-1.690;2023-01-15T01:04:19;7.32;;;1.50;;
27612;SDS011;15036;48.094;-1.690;2023-01-15T01:06:45;7.45;;;1.30;;
27612;SDS011;15036;48.094;-1.690;2023-01-15T01:09:12;6.07;;;1.63;;
27612;SDS011;15036;48.094;-1.690;2023-01-15T01:11:38;6.07;;;1.30;;
27612;SDS011;15036;48.094;-1.690;2023-01-15T01:14:04;6.22;;;1.30;;
27612;SDS011;15036;48.094;-1.690;2023-01-15T01:19:00;6.93;;;1.48;;
27612;SDS011;15036;48.094;-1.690;2023-01-15T01:21:28;6.43;;;1.20;;
27612;SDS011;15036;48.094;-1.690;2023-01-15T01:23:56;5.57;;;1.17;;
27612;SDS011;15036;48.094;-1.690;2023-01-15T01:26:22;8.82;;;1.30;;
27612;SDS011;15036;48.094;-1.690;2023-01-15T01:28:51;4.63;;;1.20;;
27612;SDS011;15036;48.094;-1.690;2023-01-15T01:31:17;8.98;;;1.50;;
27612;SDS011;15036;48.094;-1.690;2023-01-15T01:33:43;7.22;;;1.17;;
27612;SDS011;15036;48.094;-1.690;2023-01-15T01:36:09;6.80;;;1.20;;
27612;SDS011;15036;48.094;-1.690;2023-01-15T01:38:34;6.60;;;1.20;;
27612;SDS011;15036;48.094;-1.690;2023-01-15T01:41:00;8.35;;;1.15;;
27612;SDS011;15036;48.094;-1.690;2023-01-15T01:43:27;7.30;;;1.30;;
27612;SDS011;15036;48.094;-1.690;2023-01-15T01:45:54;4.32;;;0.98;;
27612;SDS011;15036;48.094;-1.690;2023-01-15T01:48:22;7.47;;;1.00;;
27612;SDS011;15036;48.094;-1.690;2023-01-15T01:50:50;10.90;;;1.48;;
27612;SDS011;15036;48.094;-1.690;2023-01-15T01:53:20;5.93;;;1.05;;
27612;SDS011;15036;48.094;-1.690;2023-01-15T01:55:49;4.57;;;0.82;;
27612;SDS011;15036;48.094;-1.690;2023-01-15T01:58:15;7.45;;;1.25;;
27612;SDS011;15036;48.094;-1.690;2023-01-15T02:00:43;4.32;;;0.98;;
27612;SDS011;15036;48.094;-1.690;2023-01-15T02:03:12;3.33;;;0.77;;
27612;SDS011;15036;48.094;-1.690;2023-01-15T02:05:39;8.77;;;1.20;;
27612;SDS011;15036;48.094;-1.690;2023-01-15T02:08:10;6.57;;;1.08;;
27612;SDS011;15036;48.094;-1.690;2023-01-15T02:10:35;5.13;;;0.80;;
27612;SDS011;15036;48.094;-1.690;2023-01-15T02:13:15;7.68;;;1.20;;
27612;SDS011;15036;48.094;-1.690;2023-01-15T02:15:52;4.10;;;1.05;;
27612;SDS011;15036;48.094;-1.690;2023-01-15T02:18:26;9.77;;;1.30;;
27612;SDS011;15036;48.094;-1.690;2023-01-15T02:21:06;5.72;;;0.98;;
27612;SDS011;15036;48.094;-1.690;2023-01-15T02:29:26;5.00;;;1.10;;
27612;SDS011;15036;48.094;-1.690;2023-01-15T02:31:56;8.25;;;1.55;;
27612;SDS011;15036;48.094;-1.690;2023-01-15T02:34:26;5.97;;;1.10;;
27612;SDS011;15036;48.094;-1.690;2023-01-15T02:39:26;7.00;;;1.27;;
27612;SDS011;15036;48.094;-1.690;2023-01-15T02:41:53;7.10;;;1.30;;
27612;SDS011;15036;48.094;-1.690;2023-01-15T02:44:23;5.93;;;1.15;;
27612;SDS011;15036;48.094;-1.690;2023-01-15T02:46:51;8.77;;;1.15;;
27612;SDS011;15036;48.094;-1.690;2023-01-15T02:49:18;5.13;;;0.95;;
27612;SDS011;15036;48.094;-1.690;2023-01-15T02:54:40;7.63;;;1.08;;
27612;SDS011;15036;48.094;-1.690;2023-01-15T02:57:10;10.35;;;1.10;;
27612;SDS011;15036;48.094;-1.690;2023-01-15T02:59:38;8.27;;;1.20;;
27612;SDS011;15036;48.094;-1.690;2023-01-15T03:02:09;9.77;;;1.50;;
27612;SDS011;15036;48.094;-1.690;2023-01-15T03:09:45;8.70;;;1.30;;
27612;SDS011;15036;48.094;-1.690;2023-01-15T03:12:29;8.40;;;1.38;;
27612;SDS011;15036;48.094;-1.690;2023-01-15T03:15:34;10.13;;;1.60;;
27612;SDS011;15036;48.094;-1.690;2023-01-15T03:18:23;10.73;;;1.75;;
27612;SDS011;15036;48.094;-1.690;2023-01-15T03:20:53;9.48;;;1.55;;
27612;SDS011;15036;48.094;-1.690;2023-01-15T03:23:22;9.88;;;2.00;;
27612;SDS011;15036;48.094;-1.690;2023-01-15T03:25:51;8.57;;;1.58;;
27612;SDS011;15036;48.094;-1.690;2023-01-15T03:28:19;7.72;;;1.40;;
27612;SDS011;15036;48.094;-1.690;2023-01-15T03:30:49;10.38;;;1.90;;
27612;SDS011;15036;48.094;-1.690;2023-01-15T03:33:15;9.90;;;1.73;;
27612;SDS011;15036;48.094;-1.690;2023-01-15T03:35:55;11.57;;;1.58;;
27612;SDS011;15036;48.094;-1.690;2023-01-15T03:38:24;10.98;;;2.03;;
27612;SDS011;15036;48.094;-1.690;2023-01-15T03:43:44;10.57;;;1.65;;
27612;SDS011;15036;48.094;-1.690;2023-01-15T03:48:58;9.82;;;1.52;;
27612;SDS011;15036;48.094;-1.690;2023-01-15T03:51:38;8.95;;;1.77;;
27612;SDS011;15036;48.094;-1.690;2023-01-15T03:54:26;8.68;;;1.50;;
27612;SDS011;15036;48.094;-1.690;2023-01-15T03:57:26;8.65;;;1.48;;
27612;SDS011;15036;48.094;-1.690;2023-01-15T03:59:58;9.25;;;1.40;;
27612;SDS011;15036;48.094;-1.690;2023-01-15T04:02:28;7.97;;;1.48;;
27612;SDS011;15036;48.094;-1.690;2023-01-15T04:04:54;6.85;;;1.50;;
27612;SDS011;15036;48.094;-1.690;2023-01-15T04:07:22;8.32;;;1.50;;
27612;SDS011;15036;48.094;-1.690;2023-01-15T04:09:48;8.38;;;1.58;;
27612;SDS011;15036;48.094;-1.690;2023-01-15T04:12:14;6.72;;;1.40;;
27612;SDS011;15036;48.094;-1.690;2023-01-15T04:14:39;7.88;;;1.55;;
27612;SDS011;15036;48.094;-1.690;2023-01-15T04:17:05;6.97;;;1.40;;
27612;SDS011;15036;48.094;-1.690;2023-01-15T04:19:30;10.50;;;2.08;;
27612;SDS011;15036;48.094;-1.690;2023-01-15T04:21:56;8.52;;;1.45;;
27612;SDS011;15036;48.094;-1.690;2023-01-15T04:24:21;10.02;;;1.60;;
27612;SDS011;15036;48.094;-1.690;2023-01-15T04:26:46;12.80;;;1.95;;
27612;SDS011;15036;48.094;-1.690;2023-01-15T04:29:12;7.50;;;1.20;;
27612;SDS011;15036;48.094;-1.690;2023-01-15T04:31:37;9.27;;;1.52;;
27612;SDS011;15036;48.094;-1.690;2023-01-15T04:34:03;8.68;;;1.23;;
27612;SDS011;15036;48.094;-1.690;2023-01-15T04:36:28;11.57;;;1.38;;
27612;SDS011;15036;48.094;-1.690;2023-01-15T04:38:54;6.85;;;1.10;;
27612;SDS011;15036;48.094;-1.690;2023-01-15T04:41:21;7.85;;;1.83;;
27612;SDS011;15036;48.094;-1.690;2023-01-15T04:44:05;8.23;;;1.10;;
27612;SDS011;15036;48.094;-1.690;2023-01-15T04:46:31;5.40;;;0.90;;
27612;SDS011;15036;48.094;-1.690;2023-01-15T04:48:58;8.35;;;1.30;;
27612;SDS011;15036;48.094;-1.690;2023-01-15T04:51:23;6.68;;;1.30;;
27612;SDS011;15036;48.094;-1.690;2023-01-15T04:53:49;9.43;;;1.65;;
27612;SDS011;15036;48.094;-1.690;2023-01-15T04:56:14;6.40;;;1.00;;
27612;SDS011;15036;48.094;-1.690;2023-01-15T04:58:39;9.88;;;1.83;;
27612;SDS011;15036;48.094;-1.690;2023-01-15T05:01:11;9.48;;;1.40;;
27612;SDS011;15036;48.094;-1.690;2023-01-15T05:03:39;10.20;;;1.77;;
27612;SDS011;15036;48.094;-1.690;2023-01-15T05:06:04;6.63;;;1.23;;
27612;SDS011;15036;48.094;-1.690;2023-01-15T05:08:30;4.50;;;1.13;;
27612;SDS011;15036;48.094;-1.690;2023-01-15T05:10:59;7.72;;;1.20;;
27612;SDS011;15036;48.094;-1.690;2023-01-15T05:13:26;6.35;;;1.08;;
27612;SDS011;15036;48.094;-1.690;2023-01-15T05:15:51;10.43;;;1.67;;
27612;SDS011;15036;48.094;-1.690;2023-01-15T05:18:17;10.52;;;1.33;;
27612;SDS011;15036;48.094;-1.690;2023-01-15T05:20:42;8.73;;;1.23;;
27612;SDS011;15036;48.094;-1.690;2023-01-15T05:23:07;9.23;;;1.40;;
27612;SDS011;15036;48.094;-1.690;2023-01-15T05:25:36;6.05;;;1.40;;
27612;SDS011;15036;48.094;-1.690;2023-01-15T05:28:02;8.48;;;1.85;;
27612;SDS011;15036;48.094;-1.690;2023-01-15T05:30:27;10.60;;;1.30;;
27612;SDS011;15036;48.094;-1.690;2023-01-15T05:32:53;10.63;;;1.40;;
27612;SDS011;15036;48.094;-1.690;2023-01-15T05:35:18;7.65;;;1.50;;
27612;SDS011;15036;48.094;-1.690;2023-01-15T05:37:44;9.32;;;1.65;;
27612;SDS011;15036;48.094;-1.690;2023-01-15T05:40:09;7.13;;;1.42;;
27612;SDS011;15036;48.094;-1.690;2023-01-15T05:42:35;11.15;;;2.05;;
27612;SDS011;15036;48.094;-1.690;2023-01-15T05:45:00;7.65;;;1.67;;
27612;SDS011;15036;48.094;-1.690;2023-01-15T05:47:26;13.45;;;1.58;;
27612;SDS011;15036;48.094;-1.690;2023-01-15T05:49:51;7.32;;;1.60;;
27612;SDS011;15036;48.094;-1.690;2023-01-15T05:52:16;8.68;;;1.50;;
27612;SDS011;15036;48.094;-1.690;2023-01-15T05:54:42;10.93;;;1.65;;
27612;SDS011;15036;48.094;-1.690;2023-01-15T05:57:08;8.68;;;1.50;;
27612;SDS011;15036;48.094;-1.690;2023-01-15T05:59:35;7.22;;;1.52;;
27612;SDS011;15036;48.094;-1.690;2023-01-15T06:02:01;9.13;;;1.75;;
27612;SDS011;15036;48.094;-1.690;2023-01-15T06:04:26;8.50;;;1.30;;
27612;SDS011;15036;48.094;-1.690;2023-01-15T06:06:52;7.93;;;1.17;;
27612;SDS011;15036;48.094;-1.690;2023-01-15T06:09:20;11.23;;;2.00;;
27612;SDS011;15036;48.094;-1.690;2023-01-15T06:11:47;5.75;;;1.35;;
27612;SDS011;15036;48.094;-1.690;2023-01-15T06:14:12;7.22;;;1.20;;
27612;SDS011;15036;48.094;-1.690;2023-01-15T06:16:38;7.50;;;1.30;;
27612;SDS011;15036;48.094;-1.690;2023-01-15T06:19:05;10.38;;;1.52;;
27612;SDS011;15036;48.094;-1.690;2023-01-15T06:21:32;8.30;;;1.30;;
27612;SDS011;15036;48.094;-1.690;2023-01-15T06:23:58;9.80;;;1.45;;
27612;SDS011;15036;48.094;-1.690;2023-01-15T06:26:23;6.38;;;1.33;;
27612;SDS011;15036;48.094;-1.690;2023-01-15T06:28:49;8.88;;;1.67;;
27612;SDS011;15036;48.094;-1.690;2023-01-15T06:31:18;9.32;;;1.95;;
27612;SDS011;15036;48.094;-1.690;2023-01-15T06:33:45;7.80;;;1.98;;
27612;SDS011;15036;48.094;-1.690;2023-01-15T06:36:11;9.32;;;1.80;;
27612;SDS011;15036;48.094;-1.690;2023-01-15T06:38:39;11.20;;;1.42;;
27612;SDS011;15036;48.094;-1.690;2023-01-15T06:41:05;7.15;;;1.30;;
27612;SDS011;15036;48.094;-1.690;2023-01-15T06:43:51;12.52;;;1.73;;
27612;SDS011;15036;48.094;-1.690;2023-01-15T06:46:34;8.80;;;1.40;;
27612;SDS011;15036;48.094;-1.690;2023-01-15T06:49:18;10.32;;;1.42;;
27612;SDS011;15036;48.094;-1.690;2023-01-15T06:51:44;9.25;;;1.60;;
27612;SDS011;15036;48.094;-1.690;2023-01-15T06:54:09;7.95;;;1.50;;
27612;SDS011;15036;48.094;-1.690;2023-01-15T06:56:34;11.23;;;1.55;;
27612;SDS011;15036;48.094;-1.690;2023-01-15T06:59:00;8.10;;;1.30;;
27612;SDS011;15036;48.094;-1.690;2023-01-15T07:01:25;9.98;;;1.70;;
27612;SDS011;15036;48.094;-1.690;2023-01-15T07:03:54;8.40;;;1.55;;
27612;SDS011;15036;48.094;-1.690;2023-01-15T07:06:20;9.63;;;1.67;;
27612;SDS011;15036;48.094;-1.690;2023-01-15T07:08:45;11.15;;;1.92;;
27612;SDS011;15036;48.094;-1.690;2023-01-15T07:11:11;11.93;;;1.70;;
27612;SDS011;15036;48.094;-1.690;2023-01-15T07:13:36;8.35;;;1.60;;
27612;SDS011;15036;48.094;-1.690;2023-01-15T07:16:02;11.82;;;1.70;;
27612;SDS011;15036;48.094;-1.690;2023-01-15T07:18:29;7.97;;;1.50;;
27612;SDS011;15036;48.094;-1.690;2023-01-15T07:20:56;9.05;;;1.67;;
27612;SDS011;15036;48.094;-1.690;2023-01-15T07:23:23;13.18;;;2.00;;
27612;SDS011;15036;48.094;-1.690;2023-01-15T07:25:50;10.23;;;1.75;;
27612;SDS011;15036;48.094;-1.690;2023-01-15T07:28:20;11.50;;;2.13;;
27612;SDS011;15036;48.094;-1.690;2023-01-15T07:30:48;10.90;;;2.00;;
27612;SDS011;15036;48.094;-1.690;2023-01-15T07:33:14;10.13;;;1.60;;
27612;SDS011;15036;48.094;-1.690;2023-01-15T07:35:39;7.20;;;1.50;;
27612;SDS011;15036;48.094;-1.690;2023-01-15T07:38:05;11.02;;;2.20;;
27612;SDS011;15036;48.094;-1.690;2023-01-15T07:40:30;6.25;;;1.70;;
27612;SDS011;15036;48.094;-1.690;2023-01-15T07:42:56;11.27;;;2.00;;
27612;SDS011;15036;48.094;-1.690;2023-01-15T07:45:41;10.32;;;1.88;;
27612;SDS011;15036;48.094;-1.690;2023-01-15T07:48:26;13.15;;;2.22;;
27612;SDS011;15036;48.094;-1.690;2023-01-15T07:51:09;11.27;;;1.52;;
27612;SDS011;15036;48.094;-1.690;2023-01-15T07:53:35;14.63;;;1.70;;
27612;SDS011;15036;48.094;-1.690;2023-01-15T07:56:00;9.35;;;1.80;;
27612;SDS011;15036;48.094;-1.690;2023-01-15T07:58:26;10.43;;;1.80;;
27612;SDS011;15036;48.094;-1.690;2023-01-15T08:00:51;11.25;;;2.10;;
27612;SDS011;15036;48.094;-1.690;2023-01-15T08:03:17;20.65;;;2.50;;
27612;SDS011;15036;48.094;-1.690;2023-01-15T08:05:43;9.05;;;2.13;;
27612;SDS011;15036;48.094;-1.690;2023-01-15T08:08:18;14.40;;;2.90;;
27612;SDS011;15036;48.094;-1.690;2023-01-15T08:10:45;13.30;;;2.05;;
27612;SDS011;15036;48.094;-1.690;2023-01-15T08:13:29;11.07;;;1.88;;
27612;SDS011;15036;48.094;-1.690;2023-01-15T08:16:15;12.15;;;2.00;;
27612;SDS011;15036;48.094;-1.690;2023-01-15T08:18:40;13.90;;;1.77;;
27612;SDS011;15036;48.094;-1.690;2023-01-15T08:21:06;10.75;;;1.80;;
27612;SDS011;15036;48.094;-1.690;2023-01-15T08:23:37;10.73;;;2.03;;
27612;SDS011;15036;48.094;-1.690;2023-01-15T08:26:02;10.93;;;1.83;;
27612;SDS011;15036;48.094;-1.690;2023-01-15T08:28:30;11.13;;;2.10;;
27612;SDS011;15036;48.094;-1.690;2023-01-15T08:30:55;14.15;;;2.10;;
27612;SDS011;15036;48.094;-1.690;2023-01-15T08:33:20;15.68;;;2.30;;
27612;SDS011;15036;48.094;-1.690;2023-01-15T08:35:46;13.10;;;2.17;;
27612;SDS011;15036;48.094;-1.690;2023-01-15T08:38:11;12.98;;;2.40;;
27612;SDS011;15036;48.094;-1.690;2023-01-15T08:40:36;6.25;;;1.67;;
27612;SDS011;15036;48.094;-1.690;2023-01-15T08:43:22;17.00;;;2.17;;
27612;SDS011;15036;48.094;-1.690;2023-01-15T08:45:47;12.55;;;2.40;;
27612;SDS011;15036;48.094;-1.690;2023-01-15T08:48:13;12.15;;;1.95;;
27612;SDS011;15036;48.094;-1.690;2023-01-15T08:50:38;9.95;;;2.25;;
27612;SDS011;15036;48.094;-1.690;2023-01-15T08:53:03;12.77;;;2.40;;
27612;SDS011;15036;48.094;-1.690;2023-01-15T08:55:29;9.77;;;2.22;;
27612;SDS011;15036;48.094;-1.690;2023-01-15T08:57:54;8.55;;;2.03;;
27612;SDS011;15036;48.094;-1.690;2023-01-15T09:00:19;14.38;;;2.28;;
27612;SDS011;15036;48.094;-1.690;2023-01-15T09:02:45;12.65;;;2.13;;
27612;SDS011;15036;48.094;-1.690;2023-01-15T09:05:11;13.68;;;2.17;;
27612;SDS011;15036;48.094;-1.690;2023-01-15T09:07:38;13.85;;;2.13;;
27612;SDS011;15036;48.094;-1.690;2023-01-15T09:10:03;10.60;;;2.00;;
27612;SDS011;15036;48.094;-1.690;2023-01-15T09:12:29;13.60;;;2.28;;
27612;SDS011;15036;48.094;-1.690;2023-01-15T09:14:54;11.82;;;2.22;;
27612;SDS011;15036;48.094;-1.690;2023-01-15T09:17:21;12.30;;;2.00;;
27612;SDS011;15036;48.094;-1.690;2023-01-15T09:19:46;13.23;;;2.00;;
27612;SDS011;15036;48.094;-1.690;2023-01-15T09:22:12;9.65;;;2.13;;
27612;SDS011;15036;48.094;-1.690;2023-01-15T09:24:37;12.63;;;1.92;;
27612;SDS011;15036;48.094;-1.690;2023-01-15T09:27:03;9.63;;;1.90;;
27612;SDS011;15036;48.094;-1.690;2023-01-15T09:29:28;10.35;;;2.30;;
27612;SDS011;15036;48.094;-1.690;2023-01-15T09:31:53;13.60;;;2.40;;
27612;SDS011;15036;48.094;-1.690;2023-01-15T09:34:19;10.63;;;1.90;;
27612;SDS011;15036;48.094;-1.690;2023-01-15T09:36:44;11.27;;;2.45;;
27612;SDS011;15036;48.094;-1.690;2023-01-15T09:39:10;10.05;;;1.98;;
27612;SDS011;15036;48.094;-1.690;2023-01-15T09:44:42;10.93;;;2.35;;
27612;SDS011;15036;48.094;-1.690;2023-01-15T09:47:35;9.30;;;1.73;;
27612;SDS011;15036;48.094;-1.690;2023-01-15T09:55:37;9.05;;;1.92;;
27612;SDS011;15036;48.094;-1.690;2023-01-15T09:58:09;8.50;;;1.70;;
27612;SDS011;15036;48.094;-1.690;2023-01-15T10:00:38;11.23;;;2.00;;
27612;SDS011;15036;48.094;-1.690;2023-01-15T10:03:24;9.20;;;1.90;;
27612;SDS011;15036;48.094;-1.690;2023-01-15T10:11:30;10.27;;;1.67;;
27612;SDS011;15036;48.094;-1.690;2023-01-15T10:17:02;8.23;;;1.70;;
27612;SDS011;15036;48.094;-1.690;2023-01-15T10:19:29;8.27;;;1.40;;
27612;SDS011;15036;48.094;-1.690;2023-01-15T10:21:57;7.18;;;1.38;;
27612;SDS011;15036;48.094;-1.690;2023-01-15T10:24:38;8.13;;;1.88;;
27612;SDS011;15036;48.094;-1.690;2023-01-15T10:27:17;11.82;;;1.80;;
27612;SDS011;15036;48.094;-1.690;2023-01-15T10:45:55;7.63;;;1.50;;
27612;SDS011;15036;48.094;-1.690;2023-01-15T10:51:23;9.88;;;2.30;;
27612;SDS011;15036;48.094;-1.690;2023-01-15T10:53:58;13.07;;;1.95;;
27612;SDS011;15036;48.094;-1.690;2023-01-15T10:56:32;7.88;;;1.70;;
27612;SDS011;15036;48.094;-1.690;2023-01-15T10:59:03;6.95;;;1.50;;
27612;SDS011;15036;48.094;-1.690;2023-01-15T11:01:32;9.23;;;1.88;;
27612;SDS011;15036;48.094;-1.690;2023-01-15T11:03:58;7.30;;;1.65;;
27612;SDS011;15036;48.094;-1.690;2023-01-15T11:06:24;8.05;;;1.50;;
27612;SDS011;15036;48.094;-1.690;2023-01-15T11:08:51;12.10;;;2.38;;
27612;SDS011;15036;48.094;-1.690;2023-01-15T11:11:26;12.27;;;1.98;;
27612;SDS011;15036;48.094;-1.690;2023-01-15T11:14:15;8.95;;;1.30;;
27612;SDS011;15036;48.094;-1.690;2023-01-15T11:16:59;8.18;;;1.33;;
27612;SDS011;15036;48.094;-1.690;2023-01-15T11:19:34;11.90;;;2.13;;
27612;SDS011;15036;48.094;-1.690;2023-01-15T11:22:13;7.60;;;1.63;;
27612;SDS011;15036;48.094;-1.690;2023-01-15T11:24:48;11.85;;;1.92;;
27612;SDS011;15036;48.094;-1.690;2023-01-15T11:27:17;9.27;;;1.67;;
27612;SDS011;15036;48.094;-1.690;2023-01-15T11:29:49;9.77;;;1.42;;
27612;SDS011;15036;48.094;-1.690;2023-01-15T11:34:55;10.45;;;2.50;;
27612;SDS011;15036;48.094;-1.690;2023-01-15T11:37:22;11.98;;;1.85;;
27612;SDS011;15036;48.094;-1.690;2023-01-15T11:39:55;9.13;;;1.83;;
27612;SDS011;15036;48.094;-1.690;2023-01-15T11:42:24;9.32;;;2.00;;
27612;SDS011;15036;48.094;-1.690;2023-01-15T11:45:12;6.53;;;1.33;;
27612;SDS011;15036;48.094;-1.690;2023-01-15T11:47:59;6.90;;;1.80;;
27612;SDS011;15036;48.094;-1.690;2023-01-15T11:50:51;11.48;;;1.85;;
27612;SDS011;15036;48.094;-1.690;2023-01-15T11:53:24;8.52;;;1.95;;
27612;SDS011;15036;48.094;-1.690;2023-01-15T11:55:54;8.38;;;2.00;;
27612;SDS011;15036;48.094;-1.690;2023-01-15T11:58:23;10.35;;;1.95;;
27612;SDS011;15036;48.094;-1.690;2023-01-15T12:00:51;10.77;;;1.85;;
27612;SDS011;15036;48.094;-1.690;2023-01-15T12:03:20;9.95;;;2.03;;
27612;SDS011;15036;48.094;-1.690;2023-01-15T12:05:59;10.05;;;1.95;;
27612;SDS011;15036;48.094;-1.690;2023-01-15T12:21:43;5.13;;;1.40;;
27612;SDS011;15036;48.094;-1.690;2023-01-15T12:29:50;4.65;;;0.98;;
27612;SDS011;15036;48.094;-1.690;2023-01-15T12:32:22;6.07;;;1.20;;
27612;SDS011;15036;48.094;-1.690;2023-01-15T12:34:57;4.40;;;1.15;;
27612;SDS011;15036;48.094;-1.690;2023-01-15T12:37:35;5.22;;;1.10;;
27612;SDS011;15036;48.094;-1.690;2023-01-15T12:42:37;4.35;;;1.00;;
27612;SDS011;15036;48.094;-1.690;2023-01-15T12:45:27;4.03;;;0.90;;
27612;SDS011;15036;48.094;-1.690;2023-01-15T12:53:09;7.15;;;1.10;;
27612;SDS011;15036;48.094;-1.690;2023-01-15T12:55:45;4.85;;;1.27;;
27612;SDS011;15036;48.094;-1.690;2023-01-15T13:01:10;6.38;;;1.02;;
27612;SDS011;15036;48.094;-1.690;2023-01-15T13:04:04;6.80;;;1.10;;
27612;SDS011;15036;48.094;-1.690;2023-01-15T13:06:50;6.22;;;1.05;;
27612;SDS011;15036;48.094;-1.690;2023-01-15T13:12:15;6.32;;;1.63;;
27612;SDS011;15036;48.094;-1.690;2023-01-15T13:14:41;7.13;;;1.33;;
27612;SDS011;15036;48.094;-1.690;2023-01-15T13:17:11;5.07;;;1.30;;
27612;SDS011;15036;48.094;-1.690;2023-01-15T13:19:53;5.13;;;1.10;;
27612;SDS011;15036;48.094;-1.690;2023-01-15T13:22:23;5.55;;;1.20;;
27612;SDS011;15036;48.094;-1.690;2023-01-15T13:25:04;5.70;;;1.30;;
27612;SDS011;15036;48.094;-1.690;2023-01-15T13:28:08;5.35;;;1.38;;
27612;SDS011;15036;48.094;-1.690;2023-01-15T13:33:41;6.25;;;1.42;;
27612;SDS011;15036;48.094;-1.690;2023-01-15T13:36:23;5.43;;;1.40;;
27612;SDS011;15036;48.094;-1.690;2023-01-15T13:38:57;6.25;;;1.60;;
27612;SDS011;15036;48.094;-1.690;2023-01-15T13:41:26;3.88;;;1.15;;
27612;SDS011;15036;48.094;-1.690;2023-01-15T13:44:20;5.20;;;1.08;;
27612;SDS011;15036;48.094;-1.690;2023-01-15T13:46:48;7.78;;;1.35;;
27612;SDS011;15036;48.094;-1.690;2023-01-15T13:49:47;6.82;;;1.20;;
27612;SDS011;15036;48.094;-1.690;2023-01-15T13:52:20;5.00;;;0.98;;
27612;SDS011;15036;48.094;-1.690;2023-01-15T13:54:50;4.97;;;1.20;;
27612;SDS011;15036;48.094;-1.690;2023-01-15T13:59:49;7.15;;;1.88;;
27612;SDS011;15036;48.094;-1.690;2023-01-15T14:02:25;7.60;;;1.50;;
27612;SDS011;15036;48.094;-1.690;2023-01-15T14:04:55;6.82;;;1.38;;
27612;SDS011;15036;48.094;-1.690;2023-01-15T14:07:32;8.63;;;1.40;;
27612;SDS011;15036;48.094;-1.690;2023-01-15T14:10:17;7.05;;;1.50;;
27612;SDS011;15036;48.094;-1.690;2023-01-15T14:15:23;7.85;;;1.42;;
27612;SDS011;15036;48.094;-1.690;2023-01-15T14:26:26;8.48;;;2.10;;
27612;SDS011;15036;48.094;-1.690;2023-01-15T14:34:36;9.85;;;1.92;;
27612;SDS011;15036;48.094;-1.690;2023-01-15T14:45:07;7.88;;;1.92;;
27612;SDS011;15036;48.094;-1.690;2023-01-15T14:48:00;7.20;;;1.40;;
27612;SDS011;15036;48.094;-1.690;2023-01-15T14:50:32;7.28;;;1.40;;
27612;SDS011;15036;48.094;-1.690;2023-01-15T14:55:27;8.50;;;1.67;;
27612;SDS011;15036;48.094;-1.690;2023-01-15T15:00:39;10.50;;;1.80;;
27612;SDS011;15036;48.094;-1.690;2023-01-15T15:03:51;8.32;;;2.05;;
27612;SDS011;15036;48.094;-1.690;2023-01-15T15:06:04;7.45;;;1.58;;
27612;SDS011;15036;48.094;-1.690;2023-01-15T15:08:32;7.15;;;1.60;;
27612;SDS011;15036;48.094;-1.690;2023-01-15T15:10:59;8.27;;;1.88;;
27612;SDS011;15036;48.094;-1.690;2023-01-15T15:13:33;10.93;;;2.17;;
27612;SDS011;15036;48.094;-1.690;2023-01-15T15:16:10;10.85;;;2.17;;
27612;SDS011;15036;48.094;-1.690;2023-01-15T15:18:43;8.50;;;1.90;;
27612;SDS011;15036;48.094;-1.690;2023-01-15T15:21:15;11.18;;;2.03;;
27612;SDS011;15036;48.094;-1.690;2023-01-15T15:26:36;9.05;;;2.13;;
27612;SDS011;15036;48.094;-1.690;2023-01-15T15:31:55;13.38;;;2.47;;
27612;SDS011;15036;48.094;-1.690;2023-01-15T15:36:53;10.57;;;2.22;;
27612;SDS011;15036;48.094;-1.690;2023-01-15T15:42:04;11.23;;;2.35;;
27612;SDS011;15036;48.094;-1.690;2023-01-15T15:45:00;13.05;;;2.30;;
27612;SDS011;15036;48.094;-1.690;2023-01-15T15:47:44;17.83;;;2.97;;
27612;SDS011;15036;48.094;-1.690;2023-01-15T15:50:32;10.30;;;2.63;;
27612;SDS011;15036;48.094;-1.690;2023-01-15T15:52:59;10.65;;;2.60;;
27612;SDS011;15036;48.094;-1.690;2023-01-15T15:55:38;14.88;;;2.60;;
27612;SDS011;15036;48.094;-1.690;2023-01-15T15:58:06;12.45;;;2.25;;
27612;SDS011;15036;48.094;-1.690;2023-01-15T16:00:39;14.18;;;2.35;;
27612;SDS011;15036;48.094;-1.690;2023-01-15T16:03:14;10.90;;;2.47;;
27612;SDS011;15036;48.094;-1.690;2023-01-15T16:05:53;12.35;;;2.50;;
27612;SDS011;15036;48.094;-1.690;2023-01-15T16:08:20;15.23;;;2.60;;
27612;SDS011;15036;48.094;-1.690;2023-01-15T16:10:49;11.48;;;2.40;;
27612;SDS011;15036;48.094;-1.690;2023-01-15T16:13:27;14.35;;;2.83;;
27612;SDS011;15036;48.094;-1.690;2023-01-15T16:15:57;12.70;;;2.65;;
27612;SDS011;15036;48.094;-1.690;2023-01-15T16:18:34;15.77;;;2.92;;
27612;SDS011;15036;48.094;-1.690;2023-01-15T16:21:05;12.93;;;2.88;;
27612;SDS011;15036;48.094;-1.690;2023-01-15T16:23:32;14.77;;;2.70;;
27612;SDS011;15036;48.094;-1.690;2023-01-15T16:26:18;12.02;;;2.60;;
27612;SDS011;15036;48.094;-1.690;2023-01-15T16:28:53;14.65;;;3.25;;
27612;SDS011;15036;48.094;-1.690;2023-01-15T16:31:21;11.93;;;2.92;;
27612;SDS011;15036;48.094;-1.690;2023-01-15T16:33:54;15.05;;;3.33;;
27612;SDS011;15036;48.094;-1.690;2023-01-15T16:36:22;10.25;;;2.38;;
27612;SDS011;15036;48.094;-1.690;2023-01-15T16:38:49;13.25;;;2.30;;
27612;SDS011;15036;48.094;-1.690;2023-01-15T16:41:25;11.98;;;3.10;;
27612;SDS011;15036;48.094;-1.690;2023-01-15T16:43:59;13.77;;;2.50;;
27612;SDS011;15036;48.094;-1.690;2023-01-15T16:46:28;10.85;;;2.13;;
27612;SDS011;15036;48.094;-1.690;2023-01-15T16:49:41;9.15;;;2.15;;
27612;SDS011;15036;48.094;-1.690;2023-01-15T16:51:47;11.75;;;3.08;;
27612;SDS011;15036;48.094;-1.690;2023-01-15T16:56:54;9.95;;;1.95;;
27612;SDS011;15036;48.094;-1.690;2023-01-15T17:01:51;6.10;;;2.25;;
27612;SDS011;15036;48.094;-1.690;2023-01-15T17:09:20;13.32;;;2.20;;
27612;SDS011;15036;48.094;-1.690;2023-01-15T17:11:48;8.85;;;1.83;;
27612;SDS011;15036;48.094;-1.690;2023-01-15T17:14:19;8.45;;;2.10;;
27612;SDS011;15036;48.094;-1.690;2023-01-15T17:16:47;7.45;;;1.60;;
27612;SDS011;15036;48.094;-1.690;2023-01-15T17:19:12;6.20;;;1.77;;
27612;SDS011;15036;48.094;-1.690;2023-01-15T17:21:39;6.10;;;1.55;;